createdAt,value
2022-09-25T00:01:19.887Z,18.75
2022-09-25T00:03:48.015Z,18.76
2022-09-25T00:06:18.486Z,18.76
2022-09-25T00:08:46.590Z,18.77
2022-09-25T00:11:17.217Z,18.76
2022-09-25T00:13:46.082Z,18.76
2022-09-25T00:16:18.950Z,18.75
2022-09-25T00:19:05.049Z,18.76
2022-09-25T00:21:35.212Z,18.74
2022-09-25T00:24:06.098Z,18.74
2022-09-25T00:26:37.474Z,18.76
2022-09-25T00:29:07.063Z,18.77
2022-09-25T00:31:35.669Z,18.77
2022-09-25T00:34:05.614Z,18.77
2022-09-25T00:36:34.119Z,18.77
2022-09-25T00:39:01.462Z,18.76
2022-09-25T00:41:33.625Z,18.75
2022-09-25T00:44:23.970Z,18.72
2022-09-25T00:46:52.715Z,18.71
2022-09-25T00:49:24.620Z,18.70
2022-09-25T00:51:58.808Z,18.69
2022-09-25T00:54:31.537Z,18.69
2022-09-25T00:57:06.543Z,18.69
2022-09-25T00:59:39.583Z,18.68
2022-09-25T01:02:14.379Z,18.66
2022-09-25T01:04:48.433Z,18.66
2022-09-25T01:07:16.870Z,18.68
2022-09-25T01:09:45.494Z,18.69
2022-09-25T01:12:12.881Z,18.71
2022-09-25T01:14:41.500Z,18.69
2022-09-25T01:17:22.027Z,18.67
2022-09-25T01:20:08.395Z,18.64
2022-09-25T01:22:55.297Z,18.63
2022-09-25T01:25:39.642Z,18.62
2022-09-25T01:28:53.958Z,18.60
2022-09-25T01:31:29.875Z,18.60
2022-09-25T01:34:05.960Z,18.60
2022-09-25T01:36:41.667Z,18.62
2022-09-25T01:39:21.034Z,18.63
2022-09-25T01:41:55.028Z,18.64
2022-09-25T01:44:30.473Z,18.64
2022-09-25T01:47:07.473Z,18.66
2022-09-25T01:49:42.516Z,18.69
2022-09-25T01:52:17.206Z,18.71
2022-09-25T01:54:51.825Z,18.74
2022-09-25T01:57:26.847Z,18.77
2022-09-25T02:00:04.756Z,18.81
2022-09-25T02:02:38.152Z,18.85
2022-09-25T02:05:14.455Z,18.86
2022-09-25T02:07:48.102Z,18.89
2022-09-25T02:10:21.839Z,18.91
2022-09-25T02:12:56.939Z,18.94
2022-09-25T02:15:31.109Z,18.93
2022-09-25T02:18:21.807Z,18.93
2022-09-25T02:21:01.348Z,18.87
2022-09-25T02:23:40.205Z,18.88
2022-09-25T02:26:14.655Z,18.89
2022-09-25T02:28:43.379Z,18.96
2022-09-25T02:31:17.275Z,18.97
2022-09-25T02:33:44.723Z,19.00
2022-09-25T02:36:19.137Z,19.01
2022-09-25T02:38:50.259Z,19.03
2022-09-25T02:41:36.753Z,19.00
2022-09-25T02:44:17.732Z,18.98
2022-09-25T02:47:03.210Z,18.97
2022-09-25T02:49:40.460Z,18.96
2022-09-25T02:52:16.472Z,18.96
2022-09-25T02:54:53.347Z,18.94
2022-09-25T02:57:31.543Z,18.93
2022-09-25T03:00:07.223Z,18.93
2022-09-25T03:02:38.958Z,18.96
2022-09-25T03:05:12.555Z,18.96
2022-09-25T03:07:59.327Z,18.97
2022-09-25T03:10:29.181Z,18.96
2022-09-25T03:12:56.402Z,18.96
2022-09-25T03:15:25.029Z,18.96
2022-09-25T03:17:53.660Z,18.98
2022-09-25T03:20:20.880Z,18.98
2022-09-25T03:22:48.183Z,18.98
2022-09-25T03:25:16.169Z,19.00
2022-09-25T03:27:43.451Z,19.02
2022-09-25T03:30:11.845Z,19.04
2022-09-25T03:32:39.100Z,19.04
2022-09-25T03:35:09.174Z,19.01
2022-09-25T03:37:36.409Z,18.99
2022-09-25T03:40:04.901Z,18.97
2022-09-25T03:42:32.265Z,18.96
2022-09-25T03:44:59.541Z,18.94
2022-09-25T03:47:26.839Z,18.92
2022-09-25T03:49:54.137Z,18.92
2022-09-25T03:52:22.762Z,18.90
2022-09-25T03:54:50.000Z,18.91
2022-09-25T03:57:17.219Z,18.91
2022-09-25T03:59:44.467Z,18.89
2022-09-25T04:02:15.692Z,18.85
2022-09-25T04:04:44.650Z,18.82
2022-09-25T04:07:12.398Z,18.80
2022-09-25T04:09:41.039Z,18.77
2022-09-25T04:12:08.956Z,18.76
2022-09-25T04:14:36.905Z,18.75
2022-09-25T04:17:04.311Z,18.72
2022-09-25T04:19:31.615Z,18.69
2022-09-25T04:21:58.863Z,18.67
2022-09-25T04:24:44.517Z,18.66
2022-09-25T04:27:13.091Z,18.60
2022-09-25T04:29:42.429Z,18.58
2022-09-25T04:32:28.450Z,18.56
2022-09-25T04:34:55.907Z,18.51
2022-09-25T04:37:26.289Z,18.49
2022-09-25T04:39:54.102Z,18.46
2022-09-25T04:42:25.075Z,18.42
2022-09-25T04:44:53.804Z,18.37
2022-09-25T04:47:21.332Z,18.32
2022-09-25T04:49:49.637Z,18.30
2022-09-25T04:52:19.042Z,18.28
2022-09-25T04:54:46.958Z,18.28
2022-09-25T04:57:32.671Z,18.30
2022-09-25T05:00:06.978Z,18.29
2022-09-25T05:02:34.725Z,18.31
2022-09-25T05:05:02.048Z,18.30
2022-09-25T05:07:29.606Z,18.29
2022-09-25T05:09:56.854Z,18.25
2022-09-25T05:12:24.224Z,18.25
2022-09-25T05:14:51.478Z,18.22
2022-09-25T05:17:20.088Z,18.17
2022-09-25T05:19:47.322Z,18.14
2022-09-25T05:22:15.526Z,18.10
2022-09-25T05:24:42.732Z,18.05
2022-09-25T05:27:10.053Z,18.02
2022-09-25T05:29:38.459Z,18.01
2022-09-25T05:32:06.666Z,17.98
2022-09-25T05:34:35.284Z,17.93
2022-09-25T05:37:03.696Z,17.89
2022-09-25T05:39:30.939Z,17.82
2022-09-25T05:41:58.246Z,17.77
2022-09-25T05:44:28.356Z,17.73
2022-09-25T05:49:51.479Z,17.67
2022-09-25T05:52:18.748Z,17.66
2022-09-25T05:54:46.793Z,17.64
2022-09-25T05:57:14.046Z,17.64
2022-09-25T05:59:41.346Z,17.65
2022-09-25T06:02:12.006Z,17.68
2022-09-25T06:04:39.266Z,17.68
2022-09-25T06:07:09.953Z,17.67
2022-09-25T06:09:37.220Z,17.66
2022-09-25T06:12:04.913Z,17.67
2022-09-25T06:14:32.949Z,17.69
2022-09-25T06:17:00.327Z,17.70
2022-09-25T06:19:29.818Z,17.71
2022-09-25T06:22:00.443Z,17.70
2022-09-25T06:24:29.011Z,17.68
2022-09-25T06:26:56.262Z,17.68
2022-09-25T06:29:23.560Z,17.70
2022-09-25T06:31:53.031Z,17.71
2022-09-25T06:34:20.293Z,17.71
2022-09-25T06:36:47.634Z,17.72
2022-09-25T06:39:14.930Z,17.73
2022-09-25T06:41:44.053Z,17.78
2022-09-25T06:44:11.413Z,17.95
2022-09-25T06:46:38.725Z,18.25
2022-09-25T06:49:06.101Z,18.61
2022-09-25T06:51:35.471Z,18.84
2022-09-25T06:54:03.011Z,18.98
2022-09-25T06:56:30.322Z,19.12
2022-09-25T06:58:59.058Z,19.30
2022-09-25T07:01:26.318Z,19.43
2022-09-25T07:03:53.643Z,19.53
2022-09-25T07:06:23.009Z,19.57
2022-09-25T07:08:52.060Z,19.60
2022-09-25T07:11:22.077Z,19.63
2022-09-25T07:13:52.410Z,19.62
2022-09-25T07:16:23.788Z,19.58
2022-09-25T07:18:54.248Z,19.52
2022-09-25T07:21:24.560Z,19.50
2022-09-25T07:23:52.711Z,19.51
2022-09-25T07:26:23.365Z,19.51
2022-09-25T07:28:56.171Z,19.50
2022-09-25T07:31:27.797Z,19.49
2022-09-25T07:33:55.967Z,19.52
2022-09-25T07:36:23.461Z,19.53
2022-09-25T07:38:52.095Z,19.52
2022-09-25T07:41:22.648Z,19.54
2022-09-25T07:44:02.004Z,19.56
2022-09-25T07:46:44.419Z,19.61
2022-09-25T07:49:12.775Z,19.66
2022-09-25T07:51:40.105Z,19.73
2022-09-25T07:54:08.182Z,19.79
2022-09-25T07:56:38.020Z,19.85
2022-09-25T07:59:05.705Z,19.91
2022-09-25T08:01:33.068Z,19.99
2022-09-25T08:04:02.214Z,20.06
2022-09-25T08:06:29.527Z,20.17
2022-09-25T08:08:58.529Z,20.31
2022-09-25T08:11:28.023Z,20.47
2022-09-25T08:13:55.285Z,20.68
2022-09-25T08:16:23.294Z,20.93
2022-09-25T08:18:50.871Z,21.21
2022-09-25T08:21:20.810Z,21.46
2022-09-25T08:23:51.755Z,21.73
2022-09-25T08:26:21.508Z,22.36
2022-09-25T08:28:49.305Z,22.92
2022-09-25T08:31:16.682Z,23.42
2022-09-25T08:33:49.340Z,23.83
2022-09-25T08:36:19.175Z,24.17
2022-09-25T08:38:46.726Z,24.29
2022-09-25T08:41:22.170Z,24.07
2022-09-25T08:44:00.438Z,23.90
2022-09-25T08:46:59.559Z,23.85
2022-09-25T08:49:35.002Z,23.66
2022-09-25T08:52:11.435Z,24.31
2022-09-25T08:54:43.393Z,25.30
2022-09-25T08:57:27.251Z,26.47
2022-09-25T09:00:04.706Z,27.10
2022-09-25T09:02:40.587Z,27.67
2022-09-25T09:05:19.467Z,28.48
2022-09-25T09:07:57.215Z,28.85
2022-09-25T09:10:36.012Z,29.25
2022-09-25T09:13:16.616Z,29.40
2022-09-25T09:15:53.043Z,29.36
2022-09-25T09:18:24.668Z,28.93
2022-09-25T09:20:56.232Z,28.50
2022-09-25T09:23:36.775Z,27.85
2022-09-25T09:26:09.953Z,27.43
2022-09-25T09:29:39.511Z,26.89
2022-09-25T09:32:39.985Z,26.64
2022-09-25T09:35:33.453Z,26.59
2022-09-25T09:38:28.407Z,26.72
2022-09-25T09:41:21.736Z,27.00
2022-09-25T09:44:15.574Z,27.09
2022-09-25T09:46:56.608Z,26.80
2022-09-25T09:49:33.261Z,26.92
2022-09-25T09:52:10.611Z,27.03
2022-09-25T09:54:46.571Z,27.00
2022-09-25T09:57:23.214Z,26.84
2022-09-25T10:00:02.024Z,26.63
2022-09-25T10:02:39.823Z,26.62
2022-09-25T10:05:18.033Z,27.58
2022-09-25T10:07:49.663Z,28.25
2022-09-25T10:10:20.065Z,28.67
2022-09-25T10:12:51.295Z,28.78
2022-09-25T10:15:30.321Z,28.94
2022-09-25T10:18:02.032Z,29.44
2022-09-25T10:20:40.555Z,29.87
2022-09-25T10:23:32.020Z,29.51
2022-09-25T10:26:00.910Z,29.04
2022-09-25T10:28:32.449Z,28.67
2022-09-25T10:31:02.758Z,28.17
2022-09-25T10:33:31.958Z,27.63
2022-09-25T10:35:59.906Z,27.11
2022-09-25T10:38:39.394Z,26.58
2022-09-25T10:41:12.332Z,26.33
2022-09-25T10:44:02.241Z,26.09
2022-09-25T10:46:51.060Z,26.03
2022-09-25T10:49:39.338Z,25.72
2022-09-25T10:52:10.537Z,25.35
2022-09-25T10:54:44.560Z,25.06
2022-09-25T10:57:35.353Z,24.65
2022-09-25T11:00:06.079Z,24.41
2022-09-25T11:02:40.195Z,24.26
2022-09-25T11:05:18.171Z,24.12
2022-09-25T11:07:52.346Z,24.16
2022-09-25T11:10:22.453Z,24.14
2022-09-25T11:12:52.576Z,24.02
2022-09-25T11:15:23.949Z,23.84
2022-09-25T11:17:54.276Z,23.63
2022-09-25T11:20:32.734Z,23.36
2022-09-25T11:23:28.362Z,22.99
2022-09-25T11:26:06.971Z,22.81
2022-09-25T11:28:45.313Z,22.65
2022-09-25T11:31:22.395Z,22.51
2022-09-25T11:34:01.912Z,22.37
2022-09-25T11:36:35.469Z,22.27
2022-09-25T11:39:29.873Z,22.19
2022-09-25T11:42:07.102Z,22.10
2022-09-25T11:44:46.124Z,22.03
2022-09-25T11:47:21.373Z,21.99
2022-09-25T11:49:53.290Z,21.98
2022-09-25T11:52:32.465Z,21.97
2022-09-25T11:55:47.070Z,21.96
2022-09-25T11:58:47.373Z,22.00
2022-09-25T12:01:29.600Z,22.07
2022-09-25T12:04:23.160Z,22.08
2022-09-25T12:07:25.728Z,22.11
2022-09-25T12:10:19.177Z,22.15
2022-09-25T12:12:59.252Z,22.23
2022-09-25T12:15:48.096Z,22.25
2022-09-25T12:18:42.306Z,22.28
2022-09-25T12:21:19.429Z,22.32
2022-09-25T12:23:57.980Z,22.39
2022-09-25T12:26:33.917Z,22.46
2022-09-25T12:29:26.072Z,22.47
2022-09-25T12:32:04.663Z,22.57
2022-09-25T12:34:59.081Z,22.69
2022-09-25T12:37:40.235Z,22.87
2022-09-25T12:40:22.926Z,22.97
2022-09-25T12:42:59.056Z,23.01
2022-09-25T12:45:36.258Z,23.06
2022-09-25T12:48:18.787Z,23.07
2022-09-25T12:51:00.415Z,23.10
2022-09-25T12:53:36.642Z,23.08
2022-09-25T12:56:13.650Z,22.99
2022-09-25T12:58:57.490Z,22.88
2022-09-25T13:01:33.395Z,22.82
2022-09-25T13:04:23.112Z,22.73
2022-09-25T13:07:04.024Z,22.64
2022-09-25T13:09:42.223Z,22.56
2022-09-25T13:12:24.914Z,22.49
2022-09-25T13:14:58.617Z,22.44
2022-09-25T13:17:26.143Z,22.44
2022-09-25T13:19:53.560Z,22.43
2022-09-25T13:22:25.136Z,22.44
2022-09-25T13:25:02.826Z,22.44
2022-09-25T13:27:42.614Z,22.46
2022-09-25T13:30:22.743Z,22.49
2022-09-25T13:32:53.627Z,22.53
2022-09-25T13:35:23.877Z,22.54
2022-09-25T13:37:56.814Z,22.55
2022-09-25T13:40:43.089Z,22.59
2022-09-25T13:43:23.237Z,22.63
2022-09-25T13:46:26.058Z,22.62
2022-09-25T13:48:55.448Z,22.67
2022-09-25T13:51:36.250Z,22.71
2022-09-25T13:54:25.347Z,22.76
2022-09-25T13:56:55.333Z,22.85
2022-09-25T13:59:38.056Z,22.89
2022-09-25T14:02:44.187Z,22.97
2022-09-25T14:05:19.151Z,23.11
2022-09-25T14:07:49.994Z,23.23
2022-09-25T14:10:19.130Z,23.29
2022-09-25T14:12:49.738Z,23.39
2022-09-25T14:15:24.552Z,23.39
2022-09-25T14:17:57.274Z,23.42
2022-09-25T14:20:36.225Z,23.40
2022-09-25T14:23:13.886Z,23.37
2022-09-25T14:25:44.702Z,23.31
2022-09-25T14:28:22.486Z,23.22
2022-09-25T14:31:19.235Z,23.12
2022-09-25T14:34:14.688Z,23.04
2022-09-25T14:37:03.780Z,22.95
2022-09-25T14:39:44.716Z,22.88
2022-09-25T14:42:52.220Z,22.73
2022-09-25T14:45:42.835Z,22.64
2022-09-25T14:48:14.959Z,22.62
2022-09-25T14:50:49.737Z,22.55
2022-09-25T14:53:25.970Z,22.51
2022-09-25T14:55:55.103Z,22.51
2022-09-25T14:58:28.839Z,22.56
2022-09-25T15:01:04.832Z,22.69
2022-09-25T15:03:37.537Z,22.81
2022-09-25T15:06:06.433Z,23.11
2022-09-25T15:08:40.931Z,23.34
2022-09-25T15:11:13.674Z,23.54
2022-09-25T15:13:42.397Z,23.58
2022-09-25T15:16:35.997Z,23.43
2022-09-25T15:19:13.807Z,23.27
2022-09-25T15:21:43.988Z,23.11
2022-09-25T15:24:18.092Z,22.95
2022-09-25T15:26:50.212Z,22.81
2022-09-25T15:29:22.895Z,22.66
2022-09-25T15:31:51.952Z,22.54
2022-09-25T15:34:25.761Z,22.41
2022-09-25T15:36:54.547Z,22.32
2022-09-25T15:39:25.574Z,22.23
2022-09-25T15:41:53.806Z,22.20
2022-09-25T15:44:23.419Z,22.22
2022-09-25T15:46:53.711Z,22.23
2022-09-25T15:49:29.214Z,22.23
2022-09-25T15:52:01.384Z,22.21
2022-09-25T15:54:38.324Z,22.17
2022-09-25T15:57:11.318Z,22.13
2022-09-25T16:00:03.204Z,22.08
2022-09-25T16:02:54.413Z,21.98
2022-09-25T16:05:30.046Z,21.88
2022-09-25T16:08:27.508Z,21.77
2022-09-25T16:11:17.391Z,21.73
2022-09-25T16:13:48.745Z,21.72
2022-09-25T16:16:24.881Z,21.70
2022-09-25T16:18:54.576Z,21.69
2022-09-25T16:21:30.736Z,21.62
2022-09-25T16:24:02.812Z,21.58
2022-09-25T16:26:38.456Z,21.53
2022-09-25T16:29:19.991Z,21.45
2022-09-25T16:31:48.457Z,21.42
2022-09-25T16:34:26.177Z,21.38
2022-09-25T16:36:58.210Z,21.31
2022-09-25T16:39:31.311Z,21.24
2022-09-25T16:42:00.175Z,21.22
2022-09-25T16:44:46.805Z,21.14
2022-09-25T16:47:18.839Z,21.12
2022-09-25T16:49:47.064Z,21.07
2022-09-25T16:52:20.594Z,21.05
2022-09-25T16:54:56.853Z,21.03
2022-09-25T16:57:27.859Z,21.04
2022-09-25T16:59:55.639Z,21.03
2022-09-25T17:02:33.322Z,21.02
2022-09-25T17:05:04.810Z,21.02
2022-09-25T17:07:32.530Z,21.01
2022-09-25T17:10:01.569Z,21.00
2022-09-25T17:12:31.455Z,20.99
2022-09-25T17:14:59.475Z,20.98
2022-09-25T17:17:26.937Z,20.99
2022-09-25T17:19:54.196Z,21.00
2022-09-25T17:22:24.670Z,21.00
2022-09-25T17:24:52.095Z,20.96
2022-09-25T17:27:20.733Z,20.92
2022-09-25T17:29:48.180Z,20.90
2022-09-25T17:32:18.926Z,20.88
2022-09-25T17:34:46.908Z,20.86
2022-09-25T17:40:07.187Z,20.87
2022-09-25T17:42:35.852Z,20.88
2022-09-25T17:45:11.145Z,20.90
2022-09-25T17:47:38.529Z,20.89
2022-09-25T17:50:07.119Z,20.91
2022-09-25T17:52:34.405Z,20.90
2022-09-25T17:55:01.646Z,20.90
2022-09-25T17:57:29.504Z,20.91
2022-09-25T17:59:58.905Z,20.90
2022-09-25T18:02:29.027Z,20.86
2022-09-25T18:04:56.346Z,20.81
2022-09-25T18:07:23.741Z,20.78
2022-09-25T18:09:51.057Z,20.74
2022-09-25T18:12:18.279Z,20.70
2022-09-25T18:14:46.236Z,20.67
2022-09-25T18:17:15.904Z,20.63
2022-09-25T18:20:02.200Z,20.58
2022-09-25T18:22:29.458Z,20.49
2022-09-25T18:24:57.185Z,20.41
2022-09-25T18:27:28.263Z,20.35
2022-09-25T18:29:56.058Z,20.27
2022-09-25T18:32:24.981Z,20.23
2022-09-25T18:34:52.324Z,20.20
2022-09-25T18:37:20.555Z,20.16
2022-09-25T18:39:48.162Z,20.14
2022-09-25T18:42:15.800Z,20.14
2022-09-25T18:44:43.424Z,20.10
2022-09-25T18:47:11.303Z,20.05
2022-09-25T18:49:40.101Z,20.00
2022-09-25T18:52:07.465Z,19.95
2022-09-25T18:54:34.992Z,19.92
2022-09-25T18:57:02.536Z,19.87
2022-09-25T18:59:29.991Z,19.83
2022-09-25T19:01:57.583Z,19.80
2022-09-25T19:04:25.945Z,19.77
2022-09-25T19:06:54.639Z,19.73
2022-09-25T19:09:27.424Z,19.71
2022-09-25T19:11:55.381Z,19.70
2022-09-25T19:14:24.016Z,19.70
2022-09-25T19:16:53.124Z,19.69
2022-09-25T19:19:20.669Z,19.69
2022-09-25T19:21:48.169Z,19.70
2022-09-25T19:24:18.445Z,19.69
2022-09-25T19:26:45.792Z,19.69
2022-09-25T19:29:13.113Z,19.66
2022-09-25T19:31:41.147Z,19.62
2022-09-25T19:34:09.265Z,19.56
2022-09-25T19:36:37.809Z,19.51
2022-09-25T19:39:06.996Z,19.46
2022-09-25T19:41:37.966Z,19.41
2022-09-25T19:44:12.924Z,19.35
2022-09-25T19:46:41.968Z,19.25
2022-09-25T19:49:09.938Z,19.16
2022-09-25T19:51:39.202Z,19.04
2022-09-25T19:54:08.030Z,18.90
2022-09-25T19:56:40.743Z,18.74
2022-09-25T19:59:12.684Z,18.60
2022-09-25T20:01:40.714Z,18.47
2022-09-25T20:04:10.210Z,18.44
2022-09-25T20:06:39.447Z,18.39
2022-09-25T20:09:08.038Z,18.33
2022-09-25T20:11:36.771Z,18.27
2022-09-25T20:14:07.494Z,18.27
2022-09-25T20:16:37.305Z,18.30
2022-09-25T20:19:06.829Z,18.33
2022-09-25T20:21:37.163Z,18.33
2022-09-25T20:24:07.471Z,18.32
2022-09-25T20:26:36.730Z,18.31
2022-09-25T20:29:08.815Z,18.31
2022-09-25T20:31:39.188Z,18.30
2022-09-25T20:34:07.088Z,18.28
2022-09-25T20:36:36.283Z,18.25
2022-09-25T20:39:03.792Z,18.25
2022-09-25T20:41:31.470Z,18.25
2022-09-25T20:44:00.577Z,18.26
2022-09-25T20:46:28.183Z,18.26
2022-09-25T20:49:00.693Z,18.26
2022-09-25T20:51:30.903Z,18.27
2022-09-25T20:54:00.758Z,18.30
2022-09-25T20:56:30.242Z,18.33
2022-09-25T20:59:00.334Z,18.27
2022-09-25T21:01:30.745Z,18.23
2022-09-25T21:04:01.330Z,18.20
2022-09-25T21:06:32.423Z,18.15
2022-09-25T21:09:02.821Z,18.13
2022-09-25T21:11:33.000Z,18.12
2022-09-25T21:14:03.718Z,18.08
2022-09-25T21:16:33.483Z,18.06
2022-09-25T21:19:04.766Z,18.03
2022-09-25T21:21:34.391Z,17.97
2022-09-25T21:24:02.620Z,17.95
2022-09-25T21:26:32.674Z,17.91
2022-09-25T21:29:04.261Z,17.86
2022-09-25T21:31:35.357Z,17.80
2022-09-25T21:34:03.312Z,17.73
2022-09-25T21:36:31.414Z,17.59
2022-09-25T21:39:00.230Z,17.45
2022-09-25T21:41:30.034Z,17.32
2022-09-25T21:44:01.935Z,17.19
2022-09-25T21:46:30.010Z,17.08
2022-09-25T21:48:59.754Z,17.01
2022-09-25T21:51:29.639Z,16.91
2022-09-25T21:53:57.215Z,16.77
2022-09-25T21:56:26.936Z,16.63
2022-09-25T21:58:57.447Z,16.51
2022-09-25T22:01:28.627Z,16.41
2022-09-25T22:03:57.947Z,16.35
2022-09-25T22:06:28.351Z,16.31
2022-09-25T22:08:59.435Z,16.21
2022-09-25T22:11:28.216Z,16.18
2022-09-25T22:13:57.778Z,16.11
2022-09-25T22:16:30.350Z,16.03
2022-09-25T22:19:01.645Z,15.96
2022-09-25T22:21:31.576Z,15.93
2022-09-25T22:23:59.317Z,15.90
2022-09-25T22:26:28.248Z,15.84
2022-09-25T22:28:56.048Z,15.79
2022-09-25T22:31:27.292Z,15.79
2022-09-25T22:33:57.576Z,15.77
2022-09-25T22:36:27.358Z,15.79
2022-09-25T22:38:55.308Z,15.81
2022-09-25T22:41:24.387Z,15.82
2022-09-25T22:43:53.811Z,15.82
2022-09-25T22:46:23.978Z,15.84
2022-09-25T22:48:53.183Z,15.83
2022-09-25T22:51:22.622Z,15.86
2022-09-25T22:53:50.438Z,15.85
2022-09-25T22:56:20.574Z,15.79
2022-09-25T22:58:51.447Z,15.77
2022-09-25T23:01:23.026Z,15.73
2022-09-25T23:03:56.138Z,15.72
2022-09-25T23:06:24.392Z,15.73
2022-09-25T23:08:53.077Z,15.72
2022-09-25T23:11:21.882Z,15.75
2022-09-25T23:13:50.645Z,15.80
2022-09-25T23:16:18.501Z,15.83
2022-09-25T23:18:45.974Z,15.81
2022-09-25T23:21:14.604Z,15.80
2022-09-25T23:23:41.935Z,15.76
2022-09-25T23:26:09.466Z,15.75
2022-09-25T23:28:40.344Z,15.72
2022-09-25T23:31:11.013Z,15.71
2022-09-25T23:33:40.425Z,15.72
2022-09-25T23:36:11.916Z,15.74
2022-09-25T23:38:40.906Z,15.70
2022-09-25T23:41:17.446Z,15.71
2022-09-25T23:43:46.670Z,15.73
2022-09-25T23:46:16.356Z,15.73
2022-09-25T23:48:44.621Z,15.73
2022-09-25T23:51:13.763Z,15.76
2022-09-25T23:53:43.836Z,15.74
2022-09-25T23:56:14.203Z,15.72
2022-09-25T23:58:42.745Z,15.72
